aviador You're here:

LDPL Decoded Metar

PULA in CROATIA
Report Time2018-06-24 22:30:00
UTC Time2018-06-24 22:48:31
Flight Rules vfr VFR
WindVRB at 01 kt
Visibility9999 m
Phenomena:N/A
Clouds:N/A
Expected CloudBase > 1,200 ft AGL from Temp-Dew spread
CeilingNone
Temp14°C (ISA -1)
Dew Point11°C (82% RH)
QNH1016 hPa
Density Alt213 ft
Elevation207 ft
Report Wrong Elevation
Raw Report
LDPL 242230Z VRB01KT CAVOK 14/11 Q1016=

Extra information for LDPL:More info

Metar Taf Metar & Taf Last 4 Metars F.Rules Stats Wind Profile Meteogram Temp Stats Airport Information Weather charts Add Link Nearby VenuesMetar ALERT Operation Metar Decoded Social comments